This is the latest recevied weather packets stored in our database for station/object SV9TNF-1. If no packets are shown the sender has not sent any weather packets the latest 10 day(s).
| Time | Temp. | Humidity | Pressure | Rain* | Wind** | Luminosity | Snow |
|---|---|---|---|---|---|---|---|
| 1777453160 | 23.89° C | 41% | 1005.8 hPa | 0 mm | 5.81 m/s, 119° | - | - |
| 1777452861 | 24.44° C | 43% | 1005.8 hPa | 0 mm | 2.24 m/s, 97° | - | - |
| 1777452560 | 24.44° C | 42% | 1005.8 hPa | 0 mm | 3.13 m/s, 116° | - | - |
| 1777452260 | 24.44° C | 42% | 1005.8 hPa | 0 mm | 2.68 m/s, 123° | - | - |
| 1777451960 | 25° C | 43% | 1005.8 hPa | 0 mm | 4.47 m/s, 130° | - | - |
| 1777451660 | 25.56° C | 40% | 1005.8 hPa | 0 mm | 1.79 m/s, 113° | - | - |
| 1777451360 | 25° C | 41% | 1005.8 hPa | 0 mm | 3.58 m/s, 117° | - | - |
| 1777451060 | 25.56° C | 41% | 1005.8 hPa | 0 mm | 2.68 m/s, 102° | - | - |
| 1777450760 | 26.11° C | 40% | 1005.8 hPa | 0 mm | 2.24 m/s, 116° | - | - |
| 1777450460 | 25.56° C | 42% | 1005.8 hPa | 0 mm | 2.68 m/s, 133° | - | - |
| 1777450160 | 25° C | 39% | 1005.8 hPa | 0 mm | 0.45 m/s, 123° | - | - |
| 1777449860 | 24.44° C | 41% | 1005.8 hPa | 0 mm | 1.79 m/s, 128° | - | - |
| 1777449559 | 25° C | 40% | 1005.4 hPa | 0 mm | 1.79 m/s, 134° | - | - |
| 1777449259 | 23.89° C | 39% | 1005.4 hPa | 0 mm | 5.36 m/s, 120° | - | - |
| 1777448959 | 23.89° C | 39% | 1005.4 hPa | 0 mm | 1.34 m/s, 129° | - | - |
| 1777448659 | 22.78° C | 41% | 1005.1 hPa | 0 mm | 4.02 m/s, 108° | - | - |
| 1777448359 | 22.78° C | 48% | 1005.1 hPa | 0 mm | 4.92 m/s, 123° | - | - |
| 1777448059 | 22.78° C | 48% | 1005.1 hPa | 0 mm | 1.34 m/s, 121° | - | - |
| 1777447759 | 22.22° C | 51% | 1005.1 hPa | 0 mm | 3.58 m/s, 101° | - | - |
| 1777447459 | 22.22° C | 50% | 1005.1 hPa | 0 mm | 4.92 m/s, 112° | - | - |
| 1777447159 | 22.78° C | 45% | 1005.1 hPa | 0 mm | 4.02 m/s, 119° | - | - |
| 1777446859 | 22.78° C | 47% | 1005.1 hPa | 0 mm | 2.68 m/s, 123° | - | - |
| 1777446558 | 22.22° C | 51% | 1005.4 hPa | 0 mm | 3.58 m/s, 126° | - | - |
| 1777446259 | 22.22° C | 51% | 1005.4 hPa | 0 mm | 2.68 m/s, 103° | - | - |
| 1777445958 | 22.22° C | 49% | 1005.4 hPa | 0 mm | 1.34 m/s, 120° | - | - |
* Rain latest hour (hover to see other rain measurements)
** Current wind speed in m/s (hover to see current wind gust speed)